sensor_id;sensor_type;location;lat;lon;timestamp;temperature;humidity
20803;DHT22;10562;-33.856;151.182;2022-10-16T00:01:58;24.50;99.90
20803;DHT22;10562;-33.856;151.182;2022-10-16T00:04:29;24.80;99.90
20803;DHT22;10562;-33.856;151.182;2022-10-16T00:07:02;24.80;99.90
20803;DHT22;10562;-33.856;151.182;2022-10-16T00:09:33;24.90;99.90
20803;DHT22;10562;-33.856;151.182;2022-10-16T00:12:04;24.90;99.90
20803;DHT22;10562;-33.856;151.182;2022-10-16T00:14:35;24.80;99.90
20803;DHT22;10562;-33.856;151.182;2022-10-16T00:17:08;24.70;99.90
20803;DHT22;10562;-33.856;151.182;2022-10-16T00:19:39;24.50;99.90
20803;DHT22;10562;-33.856;151.182;2022-10-16T00:22:12;24.50;99.90
20803;DHT22;10562;-33.856;151.182;2022-10-16T00:24:43;24.90;99.90
20803;DHT22;10562;-33.856;151.182;2022-10-16T00:27:13;24.80;99.90
20803;DHT22;10562;-33.856;151.182;2022-10-16T00:29:44;24.70;99.90
20803;DHT22;10562;-33.856;151.182;2022-10-16T00:32:15;24.60;99.90
20803;DHT22;10562;-33.856;151.182;2022-10-16T00:34:46;24.40;99.90
20803;DHT22;10562;-33.856;151.182;2022-10-16T00:37:18;24.20;99.90
20803;DHT22;10562;-33.856;151.182;2022-10-16T00:39:49;24.20;99.90
20803;DHT22;10562;-33.856;151.182;2022-10-16T00:42:20;24.50;99.90
20803;DHT22;10562;-33.856;151.182;2022-10-16T00:44:52;24.50;99.90
20803;DHT22;10562;-33.856;151.182;2022-10-16T00:47:28;24.60;99.90
20803;DHT22;10562;-33.856;151.182;2022-10-16T00:50:02;24.80;99.90
20803;DHT22;10562;-33.856;151.182;2022-10-16T00:52:38;25.00;99.90
20803;DHT22;10562;-33.856;151.182;2022-10-16T00:55:10;25.20;99.90
20803;DHT22;10562;-33.856;151.182;2022-10-16T00:57:41;25.20;99.90
20803;DHT22;10562;-33.856;151.182;2022-10-16T01:00:15;25.20;99.90
20803;DHT22;10562;-33.856;151.182;2022-10-16T01:02:53;24.70;99.90
20803;DHT22;10562;-33.856;151.182;2022-10-16T01:05:25;24.50;99.90
20803;DHT22;10562;-33.856;151.182;2022-10-16T01:08:04;24.50;99.90
20803;DHT22;10562;-33.856;151.182;2022-10-16T01:10:40;24.80;99.90
20803;DHT22;10562;-33.856;151.182;2022-10-16T01:13:18;24.70;99.90
20803;DHT22;10562;-33.856;151.182;2022-10-16T01:15:54;24.50;99.90
20803;DHT22;10562;-33.856;151.182;2022-10-16T01:18:30;24.40;99.90
20803;DHT22;10562;-33.856;151.182;2022-10-16T01:21:05;24.70;99.90
20803;DHT22;10562;-33.856;151.182;2022-10-16T01:23:45;25.00;99.90
20803;DHT22;10562;-33.856;151.182;2022-10-16T01:26:35;25.10;99.90
20803;DHT22;10562;-33.856;151.182;2022-10-16T01:29:15;25.00;99.90
20803;DHT22;10562;-33.856;151.182;2022-10-16T01:31:52;24.70;99.90
20803;DHT22;10562;-33.856;151.182;2022-10-16T01:34:28;24.70;99.90
20803;DHT22;10562;-33.856;151.182;2022-10-16T01:37:04;24.80;99.90
20803;DHT22;10562;-33.856;151.182;2022-10-16T01:39:37;24.90;99.90
20803;DHT22;10562;-33.856;151.182;2022-10-16T01:42:11;25.00;99.90
20803;DHT22;10562;-33.856;151.182;2022-10-16T01:44:47;24.70;99.90
20803;DHT22;10562;-33.856;151.182;2022-10-16T01:47:20;24.60;99.90
20803;DHT22;10562;-33.856;151.182;2022-10-16T01:49:53;24.70;99.90
20803;DHT22;10562;-33.856;151.182;2022-10-16T01:52:26;24.90;99.90
20803;DHT22;10562;-33.856;151.182;2022-10-16T01:55:01;25.00;99.90
20803;DHT22;10562;-33.856;151.182;2022-10-16T01:57:33;24.70;99.90
20803;DHT22;10562;-33.856;151.182;2022-10-16T02:00:09;24.90;99.90
20803;DHT22;10562;-33.856;151.182;2022-10-16T02:02:43;25.00;99.90
20803;DHT22;10562;-33.856;151.182;2022-10-16T02:05:18;24.70;99.90
20803;DHT22;10562;-33.856;151.182;2022-10-16T02:07:50;24.60;99.90
20803;DHT22;10562;-33.856;151.182;2022-10-16T02:10:22;24.60;99.90
20803;DHT22;10562;-33.856;151.182;2022-10-16T02:12:59;24.60;99.90
20803;DHT22;10562;-33.856;151.182;2022-10-16T02:15:33;24.80;99.90
20803;DHT22;10562;-33.856;151.182;2022-10-16T02:18:05;24.90;99.90
20803;DHT22;10562;-33.856;151.182;2022-10-16T02:20:41;25.10;99.90
20803;DHT22;10562;-33.856;151.182;2022-10-16T02:23:16;25.10;99.90
20803;DHT22;10562;-33.856;151.182;2022-10-16T02:25:54;25.20;99.90
20803;DHT22;10562;-33.856;151.182;2022-10-16T02:28:32;25.50;99.90
20803;DHT22;10562;-33.856;151.182;2022-10-16T02:31:11;25.60;99.90
20803;DHT22;10562;-33.856;151.182;2022-10-16T02:33:44;25.60;99.90
20803;DHT22;10562;-33.856;151.182;2022-10-16T02:36:16;25.40;99.90
20803;DHT22;10562;-33.856;151.182;2022-10-16T02:38:47;25.10;99.90
20803;DHT22;10562;-33.856;151.182;2022-10-16T02:41:19;25.00;99.90
20803;DHT22;10562;-33.856;151.182;2022-10-16T02:43:51;25.10;99.90
20803;DHT22;10562;-33.856;151.182;2022-10-16T02:46:24;25.10;99.90
20803;DHT22;10562;-33.856;151.182;2022-10-16T02:48:55;25.20;99.90
20803;DHT22;10562;-33.856;151.182;2022-10-16T02:51:26;25.10;99.90
20803;DHT22;10562;-33.856;151.182;2022-10-16T02:53:57;25.00;99.90
20803;DHT22;10562;-33.856;151.182;2022-10-16T02:56:27;24.90;99.90
20803;DHT22;10562;-33.856;151.182;2022-10-16T02:58:58;25.00;99.90
20803;DHT22;10562;-33.856;151.182;2022-10-16T03:01:31;24.90;99.90
20803;DHT22;10562;-33.856;151.182;2022-10-16T03:04:02;24.90;99.90
20803;DHT22;10562;-33.856;151.182;2022-10-16T03:06:33;25.00;99.90
20803;DHT22;10562;-33.856;151.182;2022-10-16T03:09:03;24.90;99.90
20803;DHT22;10562;-33.856;151.182;2022-10-16T03:11:34;24.80;99.90
20803;DHT22;10562;-33.856;151.182;2022-10-16T03:14:06;24.80;99.90
20803;DHT22;10562;-33.856;151.182;2022-10-16T03:16:39;24.90;99.90
20803;DHT22;10562;-33.856;151.182;2022-10-16T03:19:09;25.10;99.90
20803;DHT22;10562;-33.856;151.182;2022-10-16T03:21:40;25.10;99.90
20803;DHT22;10562;-33.856;151.182;2022-10-16T03:24:11;25.30;99.90
20803;DHT22;10562;-33.856;151.182;2022-10-16T03:26:42;24.90;99.90
20803;DHT22;10562;-33.856;151.182;2022-10-16T03:29:12;24.80;99.90
20803;DHT22;10562;-33.856;151.182;2022-10-16T03:31:45;24.60;99.90
20803;DHT22;10562;-33.856;151.182;2022-10-16T03:34:17;24.50;99.90
20803;DHT22;10562;-33.856;151.182;2022-10-16T03:36:48;24.60;99.90
20803;DHT22;10562;-33.856;151.182;2022-10-16T03:39:19;24.60;99.90
20803;DHT22;10562;-33.856;151.182;2022-10-16T03:41:50;24.80;99.90
20803;DHT22;10562;-33.856;151.182;2022-10-16T03:44:20;24.80;99.90
20803;DHT22;10562;-33.856;151.182;2022-10-16T03:46:53;24.80;99.90
20803;DHT22;10562;-33.856;151.182;2022-10-16T03:49:24;24.80;99.90
20803;DHT22;10562;-33.856;151.182;2022-10-16T03:51:54;24.70;99.90
20803;DHT22;10562;-33.856;151.182;2022-10-16T03:54:25;24.50;99.90
20803;DHT22;10562;-33.856;151.182;2022-10-16T03:56:56;24.70;99.90
20803;DHT22;10562;-33.856;151.182;2022-10-16T03:59:27;24.80;99.90
20803;DHT22;10562;-33.856;151.182;2022-10-16T04:01:59;24.80;99.90
20803;DHT22;10562;-33.856;151.182;2022-10-16T04:04:30;24.70;99.90
20803;DHT22;10562;-33.856;151.182;2022-10-16T04:07:01;24.70;99.90
20803;DHT22;10562;-33.856;151.182;2022-10-16T04:09:33;24.70;99.90
20803;DHT22;10562;-33.856;151.182;2022-10-16T04:12:04;24.30;99.90
20803;DHT22;10562;-33.856;151.182;2022-10-16T04:14:35;24.00;99.90
20803;DHT22;10562;-33.856;151.182;2022-10-16T04:17:07;23.80;99.90
20803;DHT22;10562;-33.856;151.182;2022-10-16T04:19:38;23.80;99.90
20803;DHT22;10562;-33.856;151.182;2022-10-16T04:22:09;23.90;99.90
20803;DHT22;10562;-33.856;151.182;2022-10-16T04:24:40;23.90;99.90
20803;DHT22;10562;-33.856;151.182;2022-10-16T04:27:11;24.10;99.90
20803;DHT22;10562;-33.856;151.182;2022-10-16T04:29:41;24.10;99.90
20803;DHT22;10562;-33.856;151.182;2022-10-16T04:32:14;24.10;99.90
20803;DHT22;10562;-33.856;151.182;2022-10-16T04:34:45;24.30;99.90
20803;DHT22;10562;-33.856;151.182;2022-10-16T04:37:16;24.50;99.90
20803;DHT22;10562;-33.856;151.182;2022-10-16T04:39:46;24.50;99.90
20803;DHT22;10562;-33.856;151.182;2022-10-16T04:42:18;24.40;99.90
20803;DHT22;10562;-33.856;151.182;2022-10-16T04:44:49;24.50;99.90
20803;DHT22;10562;-33.856;151.182;2022-10-16T04:47:21;24.20;99.90
20803;DHT22;10562;-33.856;151.182;2022-10-16T04:49:52;24.30;99.90
20803;DHT22;10562;-33.856;151.182;2022-10-16T04:52:24;24.50;99.90
20803;DHT22;10562;-33.856;151.182;2022-10-16T04:54:55;24.20;99.90
20803;DHT22;10562;-33.856;151.182;2022-10-16T04:57:29;24.20;99.90
20803;DHT22;10562;-33.856;151.182;2022-10-16T05:00:01;24.40;99.90
20803;DHT22;10562;-33.856;151.182;2022-10-16T05:02:33;24.40;99.90
20803;DHT22;10562;-33.856;151.182;2022-10-16T05:05:04;24.70;99.90
20803;DHT22;10562;-33.856;151.182;2022-10-16T05:07:35;24.60;99.90
20803;DHT22;10562;-33.856;151.182;2022-10-16T05:10:06;24.60;99.90
20803;DHT22;10562;-33.856;151.182;2022-10-16T05:12:37;24.50;99.90
20803;DHT22;10562;-33.856;151.182;2022-10-16T05:15:09;24.40;99.90
20803;DHT22;10562;-33.856;151.182;2022-10-16T05:17:42;24.40;99.90
20803;DHT22;10562;-33.856;151.182;2022-10-16T05:20:12;24.30;99.90
20803;DHT22;10562;-33.856;151.182;2022-10-16T05:22:43;24.20;99.90
20803;DHT22;10562;-33.856;151.182;2022-10-16T05:25:14;24.20;99.90
20803;DHT22;10562;-33.856;151.182;2022-10-16T05:27:48;24.00;99.90
20803;DHT22;10562;-33.856;151.182;2022-10-16T05:30:19;24.30;99.90
20803;DHT22;10562;-33.856;151.182;2022-10-16T05:32:52;24.70;99.90
20803;DHT22;10562;-33.856;151.182;2022-10-16T05:35:23;25.00;99.90
20803;DHT22;10562;-33.856;151.182;2022-10-16T05:37:54;25.30;99.90
20803;DHT22;10562;-33.856;151.182;2022-10-16T05:40:25;25.00;99.90
20803;DHT22;10562;-33.856;151.182;2022-10-16T05:42:56;25.10;99.90
20803;DHT22;10562;-33.856;151.182;2022-10-16T05:45:27;25.30;99.90
20803;DHT22;10562;-33.856;151.182;2022-10-16T05:48:00;25.30;99.90
20803;DHT22;10562;-33.856;151.182;2022-10-16T05:50:31;25.10;99.90
20803;DHT22;10562;-33.856;151.182;2022-10-16T05:53:02;24.70;99.90
20803;DHT22;10562;-33.856;151.182;2022-10-16T05:55:33;24.50;99.90
20803;DHT22;10562;-33.856;151.182;2022-10-16T05:58:03;24.70;99.90
20803;DHT22;10562;-33.856;151.182;2022-10-16T06:00:34;24.80;99.90
20803;DHT22;10562;-33.856;151.182;2022-10-16T06:03:07;24.70;99.90
20803;DHT22;10562;-33.856;151.182;2022-10-16T06:05:38;24.10;99.90
20803;DHT22;10562;-33.856;151.182;2022-10-16T06:08:10;24.30;99.90
20803;DHT22;10562;-33.856;151.182;2022-10-16T06:10:41;24.20;99.90
20803;DHT22;10562;-33.856;151.182;2022-10-16T06:13:12;23.80;99.90
20803;DHT22;10562;-33.856;151.182;2022-10-16T06:15:43;23.30;99.90
20803;DHT22;10562;-33.856;151.182;2022-10-16T06:18:16;23.40;99.90
20803;DHT22;10562;-33.856;151.182;2022-10-16T06:20:46;23.40;99.90
20803;DHT22;10562;-33.856;151.182;2022-10-16T06:23:17;23.00;99.90
20803;DHT22;10562;-33.856;151.182;2022-10-16T06:25:53;22.50;99.90
20803;DHT22;10562;-33.856;151.182;2022-10-16T06:28:24;22.40;99.90
20803;DHT22;10562;-33.856;151.182;2022-10-16T06:31:00;22.20;99.90
20803;DHT22;10562;-33.856;151.182;2022-10-16T06:33:33;22.00;99.90
20803;DHT22;10562;-33.856;151.182;2022-10-16T06:36:06;21.80;99.90
20803;DHT22;10562;-33.856;151.182;2022-10-16T06:38:38;21.60;99.90
20803;DHT22;10562;-33.856;151.182;2022-10-16T06:41:09;21.50;99.90
20803;DHT22;10562;-33.856;151.182;2022-10-16T06:43:41;21.30;99.90
20803;DHT22;10562;-33.856;151.182;2022-10-16T06:46:13;21.30;99.90
20803;DHT22;10562;-33.856;151.182;2022-10-16T06:48:46;21.10;99.90
20803;DHT22;10562;-33.856;151.182;2022-10-16T06:51:18;20.90;99.90
20803;DHT22;10562;-33.856;151.182;2022-10-16T06:53:50;20.80;99.90
20803;DHT22;10562;-33.856;151.182;2022-10-16T06:56:22;20.90;99.90
20803;DHT22;10562;-33.856;151.182;2022-10-16T06:58:53;20.80;99.90
20803;DHT22;10562;-33.856;151.182;2022-10-16T07:01:24;20.80;99.90
20803;DHT22;10562;-33.856;151.182;2022-10-16T07:03:57;20.70;99.90
20803;DHT22;10562;-33.856;151.182;2022-10-16T07:06:32;20.60;99.90
20803;DHT22;10562;-33.856;151.182;2022-10-16T07:09:05;20.50;99.90
20803;DHT22;10562;-33.856;151.182;2022-10-16T07:11:37;20.20;99.90
20803;DHT22;10562;-33.856;151.182;2022-10-16T07:14:16;20.10;99.90
20803;DHT22;10562;-33.856;151.182;2022-10-16T07:16:47;20.00;99.90
20803;DHT22;10562;-33.856;151.182;2022-10-16T07:19:20;19.80;99.90
20803;DHT22;10562;-33.856;151.182;2022-10-16T07:21:51;19.80;99.90
20803;DHT22;10562;-33.856;151.182;2022-10-16T07:24:22;19.60;99.90
20803;DHT22;10562;-33.856;151.182;2022-10-16T07:26:52;19.70;99.90
20803;DHT22;10562;-33.856;151.182;2022-10-16T07:29:23;19.70;99.90
20803;DHT22;10562;-33.856;151.182;2022-10-16T07:31:54;19.70;99.90
20803;DHT22;10562;-33.856;151.182;2022-10-16T07:34:27;19.70;99.90
20803;DHT22;10562;-33.856;151.182;2022-10-16T07:36:57;19.70;99.90
20803;DHT22;10562;-33.856;151.182;2022-10-16T07:39:29;19.70;99.90
20803;DHT22;10562;-33.856;151.182;2022-10-16T07:42:00;19.60;99.90
20803;DHT22;10562;-33.856;151.182;2022-10-16T07:44:31;19.60;99.90
20803;DHT22;10562;-33.856;151.182;2022-10-16T07:47:02;19.60;99.90
20803;DHT22;10562;-33.856;151.182;2022-10-16T07:49:34;19.60;99.90
20803;DHT22;10562;-33.856;151.182;2022-10-16T07:52:05;19.50;99.90
20803;DHT22;10562;-33.856;151.182;2022-10-16T07:54:36;19.50;99.90
20803;DHT22;10562;-33.856;151.182;2022-10-16T07:57:07;19.60;99.90
20803;DHT22;10562;-33.856;151.182;2022-10-16T07:59:37;19.50;99.90
20803;DHT22;10562;-33.856;151.182;2022-10-16T08:02:08;19.50;99.90
20803;DHT22;10562;-33.856;151.182;2022-10-16T08:04:41;19.50;99.90
20803;DHT22;10562;-33.856;151.182;2022-10-16T08:07:12;19.50;99.90
20803;DHT22;10562;-33.856;151.182;2022-10-16T08:09:43;19.30;99.90
20803;DHT22;10562;-33.856;151.182;2022-10-16T08:12:13;19.20;99.90
20803;DHT22;10562;-33.856;151.182;2022-10-16T08:14:44;19.10;99.90
20803;DHT22;10562;-33.856;151.182;2022-10-16T08:17:16;19.10;99.90
20803;DHT22;10562;-33.856;151.182;2022-10-16T08:19:49;19.00;99.90
20803;DHT22;10562;-33.856;151.182;2022-10-16T08:22:20;19.00;99.90
20803;DHT22;10562;-33.856;151.182;2022-10-16T08:24:50;18.90;99.90
20803;DHT22;10562;-33.856;151.182;2022-10-16T08:27:21;19.00;99.90
20803;DHT22;10562;-33.856;151.182;2022-10-16T08:29:52;19.00;99.90
20803;DHT22;10562;-33.856;151.182;2022-10-16T08:32:23;18.90;99.90
20803;DHT22;10562;-33.856;151.182;2022-10-16T08:34:56;18.90;99.90
20803;DHT22;10562;-33.856;151.182;2022-10-16T08:37:30;18.90;99.90
20803;DHT22;10562;-33.856;151.182;2022-10-16T08:40:01;18.80;99.90
20803;DHT22;10562;-33.856;151.182;2022-10-16T08:42:45;18.90;99.90
20803;DHT22;10562;-33.856;151.182;2022-10-16T08:45:30;18.80;99.90
20803;DHT22;10562;-33.856;151.182;2022-10-16T08:48:14;18.80;99.90
20803;DHT22;10562;-33.856;151.182;2022-10-16T08:50:49;18.80;99.90
20803;DHT22;10562;-33.856;151.182;2022-10-16T08:53:26;18.70;99.90
20803;DHT22;10562;-33.856;151.182;2022-10-16T08:55:58;18.70;99.90
20803;DHT22;10562;-33.856;151.182;2022-10-16T08:58:30;18.60;99.90
20803;DHT22;10562;-33.856;151.182;2022-10-16T09:01:03;18.50;99.90
20803;DHT22;10562;-33.856;151.182;2022-10-16T09:03:50;18.40;99.90
20803;DHT22;10562;-33.856;151.182;2022-10-16T09:06:33;18.50;99.90
20803;DHT22;10562;-33.856;151.182;2022-10-16T09:09:24;18.40;99.90
20803;DHT22;10562;-33.856;151.182;2022-10-16T09:11:59;18.40;99.90
20803;DHT22;10562;-33.856;151.182;2022-10-16T09:14:45;18.40;99.90
20803;DHT22;10562;-33.856;151.182;2022-10-16T09:17:26;18.30;99.90
20803;DHT22;10562;-33.856;151.182;2022-10-16T09:20:11;18.30;99.90
20803;DHT22;10562;-33.856;151.182;2022-10-16T09:22:46;18.30;99.90
20803;DHT22;10562;-33.856;151.182;2022-10-16T09:25:21;18.30;99.90
20803;DHT22;10562;-33.856;151.182;2022-10-16T09:27:53;18.20;99.90
20803;DHT22;10562;-33.856;151.182;2022-10-16T09:30:28;18.10;99.90
20803;DHT22;10562;-33.856;151.182;2022-10-16T09:33:02;18.10;99.90
20803;DHT22;10562;-33.856;151.182;2022-10-16T09:35:38;18.10;99.90
20803;DHT22;10562;-33.856;151.182;2022-10-16T09:38:24;18.20;99.90
20803;DHT22;10562;-33.856;151.182;2022-10-16T09:40:56;18.20;99.90
20803;DHT22;10562;-33.856;151.182;2022-10-16T09:43:28;18.20;99.90
20803;DHT22;10562;-33.856;151.182;2022-10-16T09:46:04;18.20;99.90
20803;DHT22;10562;-33.856;151.182;2022-10-16T09:48:39;18.10;99.90
20803;DHT22;10562;-33.856;151.182;2022-10-16T09:51:20;18.20;99.90
20803;DHT22;10562;-33.856;151.182;2022-10-16T09:53:56;18.10;99.90
20803;DHT22;10562;-33.856;151.182;2022-10-16T09:56:28;18.10;99.90
20803;DHT22;10562;-33.856;151.182;2022-10-16T09:59:01;18.10;99.90
20803;DHT22;10562;-33.856;151.182;2022-10-16T10:01:38;18.10;99.90
20803;DHT22;10562;-33.856;151.182;2022-10-16T10:04:09;18.10;99.90
20803;DHT22;10562;-33.856;151.182;2022-10-16T10:06:44;18.10;99.90
20803;DHT22;10562;-33.856;151.182;2022-10-16T10:09:20;18.10;99.90
20803;DHT22;10562;-33.856;151.182;2022-10-16T10:11:54;18.00;99.90
20803;DHT22;10562;-33.856;151.182;2022-10-16T10:14:30;18.10;99.90
20803;DHT22;10562;-33.856;151.182;2022-10-16T10:17:14;18.20;99.90
20803;DHT22;10562;-33.856;151.182;2022-10-16T10:19:50;18.20;99.90
20803;DHT22;10562;-33.856;151.182;2022-10-16T10:22:25;18.20;99.90
20803;DHT22;10562;-33.856;151.182;2022-10-16T10:30:53;18.10;99.90
20803;DHT22;10562;-33.856;151.182;2022-10-16T10:33:32;18.10;99.90
20803;DHT22;10562;-33.856;151.182;2022-10-16T10:39:00;18.00;99.90
20803;DHT22;10562;-33.856;151.182;2022-10-16T10:42:02;18.00;99.90
20803;DHT22;10562;-33.856;151.182;2022-10-16T10:44:50;17.90;99.90
20803;DHT22;10562;-33.856;151.182;2022-10-16T10:47:30;17.80;99.90
20803;DHT22;10562;-33.856;151.182;2022-10-16T10:50:10;17.80;99.90
20803;DHT22;10562;-33.856;151.182;2022-10-16T10:52:58;17.80;99.90
20803;DHT22;10562;-33.856;151.182;2022-10-16T10:55:38;17.90;99.90
20803;DHT22;10562;-33.856;151.182;2022-10-16T10:58:33;17.90;99.90
20803;DHT22;10562;-33.856;151.182;2022-10-16T11:01:09;18.00;99.90
20803;DHT22;10562;-33.856;151.182;2022-10-16T11:04:01;18.00;99.90
20803;DHT22;10562;-33.856;151.182;2022-10-16T11:06:39;18.00;99.90
20803;DHT22;10562;-33.856;151.182;2022-10-16T11:09:13;18.10;99.90
20803;DHT22;10562;-33.856;151.182;2022-10-16T11:11:47;18.20;99.90
20803;DHT22;10562;-33.856;151.182;2022-10-16T11:14:26;18.20;99.90
20803;DHT22;10562;-33.856;151.182;2022-10-16T11:17:01;18.20;99.90
20803;DHT22;10562;-33.856;151.182;2022-10-16T11:19:39;18.20;99.90
20803;DHT22;10562;-33.856;151.182;2022-10-16T11:22:16;18.30;99.90
20803;DHT22;10562;-33.856;151.182;2022-10-16T11:24:51;18.40;99.90
20803;DHT22;10562;-33.856;151.182;2022-10-16T11:27:26;18.40;99.90
20803;DHT22;10562;-33.856;151.182;2022-10-16T11:30:06;18.40;99.90
20803;DHT22;10562;-33.856;151.182;2022-10-16T11:33:00;18.50;99.90
20803;DHT22;10562;-33.856;151.182;2022-10-16T11:35:38;18.50;99.90
20803;DHT22;10562;-33.856;151.182;2022-10-16T11:38:17;18.40;99.90
20803;DHT22;10562;-33.856;151.182;2022-10-16T11:40:53;18.50;99.90
20803;DHT22;10562;-33.856;151.182;2022-10-16T11:43:28;18.50;99.90
20803;DHT22;10562;-33.856;151.182;2022-10-16T11:46:05;18.50;99.90
20803;DHT22;10562;-33.856;151.182;2022-10-16T11:48:45;18.40;99.90
20803;DHT22;10562;-33.856;151.182;2022-10-16T11:51:22;18.40;99.90
20803;DHT22;10562;-33.856;151.182;2022-10-16T11:53:59;18.30;99.90
20803;DHT22;10562;-33.856;151.182;2022-10-16T11:56:33;18.20;99.90
20803;DHT22;10562;-33.856;151.182;2022-10-16T11:59:10;18.20;99.90
20803;DHT22;10562;-33.856;151.182;2022-10-16T12:01:49;18.20;99.90
20803;DHT22;10562;-33.856;151.182;2022-10-16T12:04:26;18.30;99.90
20803;DHT22;10562;-33.856;151.182;2022-10-16T12:07:05;18.20;99.90
20803;DHT22;10562;-33.856;151.182;2022-10-16T12:09:39;18.20;99.90
20803;DHT22;10562;-33.856;151.182;2022-10-16T12:12:24;18.20;99.90
20803;DHT22;10562;-33.856;151.182;2022-10-16T12:15:03;18.10;99.90
20803;DHT22;10562;-33.856;151.182;2022-10-16T12:17:38;18.10;99.90
20803;DHT22;10562;-33.856;151.182;2022-10-16T12:20:27;18.10;99.90
20803;DHT22;10562;-33.856;151.182;2022-10-16T12:22:59;18.10;99.90
20803;DHT22;10562;-33.856;151.182;2022-10-16T12:25:31;18.00;99.90
20803;DHT22;10562;-33.856;151.182;2022-10-16T12:28:05;18.00;99.90
20803;DHT22;10562;-33.856;151.182;2022-10-16T12:30:37;18.00;99.90
20803;DHT22;10562;-33.856;151.182;2022-10-16T12:33:21;17.90;99.90
20803;DHT22;10562;-33.856;151.182;2022-10-16T12:35:53;17.90;99.90
20803;DHT22;10562;-33.856;151.182;2022-10-16T12:38:28;18.00;99.90
20803;DHT22;10562;-33.856;151.182;2022-10-16T12:41:01;17.90;99.90
20803;DHT22;10562;-33.856;151.182;2022-10-16T12:43:40;17.90;99.90
20803;DHT22;10562;-33.856;151.182;2022-10-16T12:46:34;17.80;99.90
20803;DHT22;10562;-33.856;151.182;2022-10-16T12:49:29;17.70;99.90
20803;DHT22;10562;-33.856;151.182;2022-10-16T12:52:00;17.70;99.90
20803;DHT22;10562;-33.856;151.182;2022-10-16T12:54:35;17.70;99.90
20803;DHT22;10562;-33.856;151.182;2022-10-16T12:57:24;17.70;99.90
20803;DHT22;10562;-33.856;151.182;2022-10-16T13:00:04;17.60;99.90
20803;DHT22;10562;-33.856;151.182;2022-10-16T13:02:55;17.50;99.90
20803;DHT22;10562;-33.856;151.182;2022-10-16T13:05:43;17.40;99.90
20803;DHT22;10562;-33.856;151.182;2022-10-16T13:08:37;17.30;99.90
20803;DHT22;10562;-33.856;151.182;2022-10-16T13:11:15;17.30;99.90
20803;DHT22;10562;-33.856;151.182;2022-10-16T13:14:18;17.20;99.90
20803;DHT22;10562;-33.856;151.182;2022-10-16T13:16:59;17.20;99.90
20803;DHT22;10562;-33.856;151.182;2022-10-16T13:19:38;17.20;99.90
20803;DHT22;10562;-33.856;151.182;2022-10-16T13:22:19;17.20;99.90
20803;DHT22;10562;-33.856;151.182;2022-10-16T13:25:02;17.20;99.90
20803;DHT22;10562;-33.856;151.182;2022-10-16T13:27:43;17.10;99.90
20803;DHT22;10562;-33.856;151.182;2022-10-16T13:30:19;17.00;99.90
20803;DHT22;10562;-33.856;151.182;2022-10-16T13:32:54;16.90;99.90
20803;DHT22;10562;-33.856;151.182;2022-10-16T13:35:27;16.90;99.90
20803;DHT22;10562;-33.856;151.182;2022-10-16T13:38:13;16.80;99.90
20803;DHT22;10562;-33.856;151.182;2022-10-16T13:40:54;16.90;99.90
20803;DHT22;10562;-33.856;151.182;2022-10-16T13:43:28;16.90;99.90
20803;DHT22;10562;-33.856;151.182;2022-10-16T13:46:01;16.80;99.90
20803;DHT22;10562;-33.856;151.182;2022-10-16T13:48:33;16.90;99.90
20803;DHT22;10562;-33.856;151.182;2022-10-16T13:51:06;16.90;99.90
20803;DHT22;10562;-33.856;151.182;2022-10-16T13:53:39;16.90;99.90
20803;DHT22;10562;-33.856;151.182;2022-10-16T13:56:13;16.90;99.90
20803;DHT22;10562;-33.856;151.182;2022-10-16T13:58:45;16.90;99.90
20803;DHT22;10562;-33.856;151.182;2022-10-16T14:01:19;17.00;99.90
20803;DHT22;10562;-33.856;151.182;2022-10-16T14:03:51;17.00;99.90
20803;DHT22;10562;-33.856;151.182;2022-10-16T14:06:23;17.10;99.90
20803;DHT22;10562;-33.856;151.182;2022-10-16T14:08:59;17.10;99.90
20803;DHT22;10562;-33.856;151.182;2022-10-16T14:11:30;17.10;99.90
20803;DHT22;10562;-33.856;151.182;2022-10-16T14:14:02;17.10;99.90
20803;DHT22;10562;-33.856;151.182;2022-10-16T14:16:33;17.20;99.90
20803;DHT22;10562;-33.856;151.182;2022-10-16T14:19:05;17.20;99.90
20803;DHT22;10562;-33.856;151.182;2022-10-16T14:21:39;17.20;99.90
20803;DHT22;10562;-33.856;151.182;2022-10-16T14:24:25;17.30;99.90
20803;DHT22;10562;-33.856;151.182;2022-10-16T14:26:57;17.30;99.90
20803;DHT22;10562;-33.856;151.182;2022-10-16T14:29:28;17.30;99.90
20803;DHT22;10562;-33.856;151.182;2022-10-16T14:32:02;17.30;99.90
20803;DHT22;10562;-33.856;151.182;2022-10-16T14:34:33;17.30;99.90
20803;DHT22;10562;-33.856;151.182;2022-10-16T14:37:13;17.30;99.90
20803;DHT22;10562;-33.856;151.182;2022-10-16T14:39:50;17.20;99.90
20803;DHT22;10562;-33.856;151.182;2022-10-16T14:42:22;17.20;99.90
20803;DHT22;10562;-33.856;151.182;2022-10-16T14:44:54;17.20;99.90
20803;DHT22;10562;-33.856;151.182;2022-10-16T14:47:27;17.20;99.90
20803;DHT22;10562;-33.856;151.182;2022-10-16T14:49:59;17.20;99.90
20803;DHT22;10562;-33.856;151.182;2022-10-16T14:52:30;17.20;99.90
20803;DHT22;10562;-33.856;151.182;2022-10-16T14:55:03;17.20;99.90
20803;DHT22;10562;-33.856;151.182;2022-10-16T14:57:36;17.20;99.90
20803;DHT22;10562;-33.856;151.182;2022-10-16T15:00:14;17.20;99.90
20803;DHT22;10562;-33.856;151.182;2022-10-16T15:02:47;17.20;99.90
20803;DHT22;10562;-33.856;151.182;2022-10-16T15:05:19;17.20;99.90
20803;DHT22;10562;-33.856;151.182;2022-10-16T15:07:51;17.20;99.90
20803;DHT22;10562;-33.856;151.182;2022-10-16T15:10:25;17.20;99.90
20803;DHT22;10562;-33.856;151.182;2022-10-16T15:12:57;17.20;99.90
20803;DHT22;10562;-33.856;151.182;2022-10-16T15:15:38;17.20;99.90
20803;DHT22;10562;-33.856;151.182;2022-10-16T15:18:10;17.20;99.90
20803;DHT22;10562;-33.856;151.182;2022-10-16T15:20:42;17.30;99.90
20803;DHT22;10562;-33.856;151.182;2022-10-16T15:23:15;17.30;99.90
20803;DHT22;10562;-33.856;151.182;2022-10-16T15:25:49;17.30;99.90
20803;DHT22;10562;-33.856;151.182;2022-10-16T15:28:20;17.30;99.90
20803;DHT22;10562;-33.856;151.182;2022-10-16T15:30:52;17.30;99.90
20803;DHT22;10562;-33.856;151.182;2022-10-16T15:33:24;17.20;99.90
20803;DHT22;10562;-33.856;151.182;2022-10-16T15:36:00;17.20;99.90
20803;DHT22;10562;-33.856;151.182;2022-10-16T15:38:31;17.10;99.90
20803;DHT22;10562;-33.856;151.182;2022-10-16T15:41:04;17.00;99.90